createdAt,value
2022-09-13T00:00:59.008Z,4.20
2022-09-13T00:03:45.019Z,5.60
2022-09-13T00:06:23.267Z,6.10
2022-09-13T00:09:15.797Z,6.50
2022-09-13T00:12:08.977Z,7.00
2022-09-13T00:15:01.738Z,5.10
2022-09-13T00:17:54.108Z,6.70
2022-09-13T00:20:46.549Z,10.10
2022-09-13T00:26:23.275Z,9.10
2022-09-13T00:28:59.740Z,16.60
2022-09-13T00:31:52.390Z,11.80
2022-09-13T00:34:44.337Z,11.10
2022-09-13T00:37:31.031Z,12.60
2022-09-13T00:40:23.455Z,9.10
2022-09-13T00:46:00.294Z,10.50
2022-09-13T00:48:56.610Z,12.10
2022-09-13T00:51:51.912Z,7.90
2022-09-13T00:54:41.564Z,9.30
2022-09-13T00:57:21.751Z,8.50
2022-09-13T01:00:12.073Z,8.80
2022-09-13T01:02:48.773Z,8.40
2022-09-13T01:05:37.512Z,7.50
2022-09-13T01:08:23.107Z,10.90
2022-09-13T01:11:20.172Z,14.40
2022-09-13T01:14:04.361Z,10.00
2022-09-13T01:17:18.842Z,12.20
2022-09-13T01:20:06.095Z,8.10
2022-09-13T01:23:21.687Z,11.20
2022-09-13T01:26:35.483Z,10.60
2022-09-13T01:30:00.299Z,12.10
2022-09-13T01:33:12.176Z,12.00
2022-09-13T01:36:23.344Z,8.50
2022-09-13T01:39:19.196Z,7.70
2022-09-13T01:42:14.197Z,6.90
2022-09-13T01:45:21.919Z,5.90
2022-09-13T01:48:20.527Z,6.60
2022-09-13T01:51:19.228Z,5.50
2022-09-13T01:54:15.537Z,6.60
2022-09-13T01:57:17.257Z,5.30
2022-09-13T02:00:13.671Z,5.90
2022-09-13T02:03:04.474Z,7.70
2022-09-13T02:05:55.685Z,6.70
2022-09-13T02:08:49.970Z,4.40
2022-09-13T02:11:34.897Z,7.70
2022-09-13T02:14:32.987Z,8.30
2022-09-13T02:17:20.477Z,7.70
2022-09-13T02:20:19.438Z,9.90
2022-09-13T02:23:09.575Z,6.50
2022-09-13T02:26:04.289Z,12.90
2022-09-13T02:28:52.904Z,9.40
2022-09-13T02:31:45.088Z,10.40
2022-09-13T02:34:37.399Z,10.20
2022-09-13T02:37:20.624Z,7.30
2022-09-13T02:40:22.898Z,9.20
2022-09-13T02:43:19.729Z,8.40
2022-09-13T02:46:13.897Z,8.60
2022-09-13T02:49:02.766Z,13.60
2022-09-13T02:52:02.793Z,8.00
2022-09-13T02:54:52.917Z,9.50
2022-09-13T02:57:55.526Z,10.00
2022-09-13T03:00:42.481Z,9.20
2022-09-13T03:03:31.732Z,13.80
2022-09-13T03:06:13.985Z,10.90
2022-09-13T03:08:50.494Z,14.20
2022-09-13T03:11:50.734Z,10.80
2022-09-13T03:14:53.838Z,8.90
2022-09-13T03:18:02.092Z,8.60
2022-09-13T03:21:05.833Z,8.60
2022-09-13T03:24:10.097Z,7.20
2022-09-13T03:27:02.823Z,6.50
2022-09-13T03:29:55.900Z,9.00
2022-09-13T03:32:58.262Z,8.90
2022-09-13T03:36:00.405Z,7.10
2022-09-13T03:38:43.327Z,8.80
2022-09-13T03:41:40.939Z,9.80
2022-09-13T03:44:19.578Z,12.00
2022-09-13T03:46:59.975Z,8.10
2022-09-13T03:49:48.138Z,13.90
2022-09-13T03:52:39.784Z,11.40
2022-09-13T03:55:34.324Z,10.50
2022-09-13T03:58:28.780Z,10.50
2022-09-13T04:01:14.747Z,9.30
2022-09-13T04:04:37.514Z,9.50
2022-09-13T04:07:28.437Z,9.40
2022-09-13T04:10:14.165Z,9.10
2022-09-13T04:12:49.468Z,9.40
2022-09-13T04:15:41.927Z,8.80
2022-09-13T04:18:26.684Z,8.50
2022-09-13T04:21:03.279Z,9.50
2022-09-13T04:23:55.475Z,8.90
2022-09-13T04:26:40.250Z,10.10
2022-09-13T04:32:15.301Z,10.30
2022-09-13T04:34:49.972Z,9.80
2022-09-13T04:37:42.733Z,9.10
2022-09-13T04:40:25.641Z,7.80
2022-09-13T04:43:17.926Z,8.40
2022-09-13T04:46:10.163Z,5.70
2022-09-13T04:48:55.041Z,6.10
2022-09-13T04:51:48.576Z,7.10
2022-09-13T04:54:40.907Z,6.40
2022-09-13T05:00:10.055Z,4.30
2022-09-13T05:02:57.587Z,8.00
2022-09-13T05:05:49.905Z,9.40
2022-09-13T05:08:24.459Z,6.80
2022-09-13T05:11:16.738Z,7.20
2022-09-13T05:14:11.850Z,7.90
2022-09-13T05:16:54.865Z,7.80
2022-09-13T05:19:29.412Z,10.70
2022-09-13T05:22:06.639Z,11.00
2022-09-13T05:24:38.770Z,11.10
2022-09-13T05:27:11.173Z,11.20
2022-09-13T05:29:43.795Z,15.40
2022-09-13T05:32:21.007Z,16.30
2022-09-13T05:34:56.187Z,18.60
2022-09-13T05:37:28.493Z,11.60
2022-09-13T05:40:11.932Z,15.90
2022-09-13T05:45:23.291Z,13.40
2022-09-13T05:48:15.785Z,21.90
2022-09-13T05:50:58.128Z,19.20
2022-09-13T05:53:32.782Z,16.00
2022-09-13T05:56:05.610Z,14.70
2022-09-13T05:58:43.197Z,16.60
2022-09-13T06:01:16.154Z,16.20
2022-09-13T06:03:49.807Z,14.70
2022-09-13T06:06:23.049Z,14.20
2022-09-13T06:08:58.796Z,12.70
2022-09-13T06:11:41.312Z,14.90
2022-09-13T06:14:13.627Z,16.10
2022-09-13T06:16:47.846Z,17.70
2022-09-13T06:19:19.897Z,15.60
2022-09-13T06:21:54.869Z,21.10
2022-09-13T06:24:27.155Z,19.50
2022-09-13T06:27:02.211Z,16.70
2022-09-13T06:29:34.460Z,12.00
2022-09-13T06:32:07.204Z,14.30
2022-09-13T06:34:50.480Z,10.20
2022-09-13T06:37:25.307Z,15.40
2022-09-13T06:39:57.820Z,13.30
2022-09-13T06:42:29.845Z,11.30
2022-09-13T06:45:05.203Z,10.50
2022-09-13T06:47:38.187Z,13.40
2022-09-13T06:50:13.933Z,17.40
2022-09-13T06:52:48.914Z,18.70
2022-09-13T06:55:29.794Z,9.50
2022-09-13T06:58:02.282Z,14.30
2022-09-13T07:00:34.563Z,13.50
2022-09-13T07:03:28.237Z,16.30
2022-09-13T07:06:00.293Z,17.40
2022-09-13T07:08:32.775Z,17.10
2022-09-13T07:11:04.787Z,13.00
2022-09-13T07:13:37.422Z,13.00
2022-09-13T07:16:12.291Z,10.20
2022-09-13T07:18:47.023Z,12.90
2022-09-13T07:21:19.297Z,9.80
2022-09-13T07:23:54.600Z,8.80
2022-09-13T07:26:30.079Z,9.20
2022-09-13T07:29:05.213Z,12.20
2022-09-13T07:31:40.106Z,6.70
2022-09-13T07:34:15.788Z,8.30
2022-09-13T07:36:48.329Z,7.30
2022-09-13T07:39:22.987Z,11.30
2022-09-13T07:41:56.831Z,5.70
2022-09-13T07:44:28.730Z,9.30
2022-09-13T07:47:00.914Z,8.40
2022-09-13T07:49:33.402Z,9.20
2022-09-13T07:52:06.132Z,13.20
2022-09-13T07:54:38.616Z,5.60
2022-09-13T07:57:10.951Z,6.70
2022-09-13T07:59:43.058Z,7.60
2022-09-13T08:02:15.991Z,11.00
2022-09-13T08:04:48.021Z,6.20
2022-09-13T08:07:20.150Z,11.70
2022-09-13T08:09:52.586Z,7.50
2022-09-13T08:12:24.909Z,7.00
2022-09-13T08:14:56.838Z,5.70
2022-09-13T08:17:29.018Z,6.60
2022-09-13T08:20:01.329Z,9.60
2022-09-13T08:22:34.167Z,8.10
2022-09-13T08:25:07.259Z,7.80
2022-09-13T08:27:39.273Z,7.60
2022-09-13T08:30:13.142Z,11.10
2022-09-13T08:32:45.180Z,7.40
2022-09-13T08:35:17.480Z,7.40
2022-09-13T08:37:49.455Z,5.90
2022-09-13T08:40:22.311Z,6.40
2022-09-13T08:43:03.364Z,8.20
2022-09-13T08:45:35.315Z,9.40
2022-09-13T08:48:15.353Z,5.30
2022-09-13T08:50:49.086Z,5.40
2022-09-13T08:53:25.112Z,12.10
2022-09-13T08:56:07.604Z,7.40
2022-09-13T08:59:01.275Z,7.80
2022-09-13T09:01:48.783Z,8.50
2022-09-13T09:04:35.849Z,8.20
2022-09-13T09:07:13.765Z,4.70
2022-09-13T09:09:54.549Z,12.10
2022-09-13T09:12:34.500Z,8.70
2022-09-13T09:15:16.004Z,7.90
2022-09-13T09:17:59.004Z,8.90
2022-09-13T09:20:35.028Z,7.80
2022-09-13T09:23:20.499Z,10.10
2022-09-13T09:26:02.679Z,9.00
2022-09-13T09:28:36.028Z,4.40
2022-09-13T09:31:14.483Z,6.80
2022-09-13T09:34:01.689Z,7.70
2022-09-13T09:36:43.376Z,6.20
2022-09-13T09:39:16.549Z,4.40
2022-09-13T09:41:48.801Z,3.80
2022-09-13T09:44:22.824Z,4.90
2022-09-13T09:47:01.301Z,7.50
2022-09-13T09:49:56.256Z,4.90
2022-09-13T09:52:33.899Z,4.30
2022-09-13T09:55:17.004Z,3.80
2022-09-13T09:57:57.521Z,3.10
2022-09-13T10:00:33.163Z,6.80
2022-09-13T10:03:10.133Z,4.00
2022-09-13T10:05:42.276Z,6.20
2022-09-13T10:08:27.745Z,3.50
2022-09-13T10:11:00.688Z,3.80
2022-09-13T10:13:33.505Z,3.00
2022-09-13T10:16:07.685Z,2.60
2022-09-13T10:18:53.593Z,4.10
2022-09-13T10:21:28.258Z,2.50
2022-09-13T10:24:22.482Z,3.20
2022-09-13T10:26:54.724Z,15.80
2022-09-13T10:29:27.967Z,4.20
2022-09-13T10:32:03.769Z,8.10
2022-09-13T10:34:39.625Z,3.30
2022-09-13T10:37:17.757Z,3.40
2022-09-13T10:40:08.230Z,3.30
2022-09-13T10:42:51.902Z,4.10
2022-09-13T10:45:26.147Z,2.50
2022-09-13T10:48:01.780Z,3.90
2022-09-13T10:50:35.954Z,9.40
2022-09-13T10:53:32.559Z,8.60
2022-09-13T10:56:05.267Z,3.50
2022-09-13T10:58:37.735Z,4.40
2022-09-13T11:01:43.932Z,2.70
2022-09-13T11:04:44.880Z,8.70
2022-09-13T11:07:32.485Z,5.70
2022-09-13T11:10:11.842Z,3.00
2022-09-13T11:12:49.091Z,3.80
2022-09-13T11:15:36.019Z,4.00
2022-09-13T11:18:29.009Z,6.70
2022-09-13T11:21:11.777Z,2.90
2022-09-13T11:24:16.500Z,3.10
2022-09-13T11:26:59.326Z,3.80
2022-09-13T11:29:47.379Z,2.40
2022-09-13T11:32:33.669Z,5.10
2022-09-13T11:35:35.901Z,3.90
2022-09-13T11:38:24.110Z,6.00
2022-09-13T11:41:17.566Z,6.40
2022-09-13T11:44:09.190Z,4.00
2022-09-13T11:46:52.985Z,4.40
2022-09-13T11:49:46.244Z,3.40
2022-09-13T11:52:34.459Z,2.90
2022-09-13T11:55:15.623Z,3.60
2022-09-13T11:57:51.133Z,3.10
2022-09-13T12:00:25.813Z,3.90
2022-09-13T12:03:12.785Z,3.20
2022-09-13T12:05:50.262Z,2.80
2022-09-13T12:08:24.743Z,2.70
2022-09-13T12:10:59.382Z,2.70
2022-09-13T12:16:23.158Z,3.50
2022-09-13T12:18:59.269Z,8.10
2022-09-13T12:21:37.945Z,3.20
2022-09-13T12:24:17.765Z,6.20
2022-09-13T12:26:55.433Z,3.50
2022-09-13T12:29:33.358Z,5.30
2022-09-13T12:32:10.221Z,5.40
2022-09-13T12:34:57.208Z,12.70
2022-09-13T12:37:47.010Z,7.70
2022-09-13T12:40:46.669Z,3.50
2022-09-13T12:43:43.587Z,2.90
2022-09-13T12:46:34.224Z,3.80
2022-09-13T12:49:28.978Z,3.30
2022-09-13T12:52:18.467Z,3.10
2022-09-13T12:55:44.843Z,2.60
2022-09-13T13:01:15.141Z,2.90
2022-09-13T13:03:53.658Z,3.80
2022-09-13T13:06:33.461Z,3.60
2022-09-13T13:09:26.609Z,2.50
2022-09-13T13:12:00.924Z,2.20
2022-09-13T13:14:53.236Z,5.20
2022-09-13T13:17:44.968Z,2.40
2022-09-13T13:21:03.486Z,3.60
2022-09-13T13:23:38.184Z,2.50
2022-09-13T13:26:14.113Z,2.50
2022-09-13T13:29:16.498Z,2.30
2022-09-13T13:32:10.529Z,2.40
2022-09-13T13:34:49.432Z,2.50
2022-09-13T13:37:34.386Z,3.10
2022-09-13T13:40:29.676Z,2.40
2022-09-13T13:43:31.833Z,3.70
2022-09-13T13:46:28.085Z,2.40
2022-09-13T13:49:38.740Z,3.60
2022-09-13T13:52:47.784Z,2.00
2022-09-13T13:55:41.865Z,2.60
2022-09-13T13:58:31.650Z,7.30
2022-09-13T14:01:04.977Z,4.00
2022-09-13T14:03:55.861Z,2.40
2022-09-13T14:06:39.038Z,4.30
2022-09-13T14:09:30.419Z,3.90
2022-09-13T14:12:21.188Z,4.80
2022-09-13T14:15:18.799Z,3.20
2022-09-13T14:18:34.377Z,4.30
2022-09-13T14:21:22.305Z,2.60
2022-09-13T14:24:17.125Z,4.10
2022-09-13T14:26:52.028Z,3.30
2022-09-13T14:29:26.331Z,4.00
2022-09-13T14:32:07.105Z,4.00
2022-09-13T14:34:40.478Z,5.80
2022-09-13T14:37:21.984Z,6.20
2022-09-13T14:40:04.497Z,5.90
2022-09-13T14:42:44.984Z,4.30
2022-09-13T14:45:22.436Z,2.30
2022-09-13T14:47:59.015Z,4.60
2022-09-13T14:50:36.147Z,2.80
2022-09-13T14:53:15.519Z,2.90
2022-09-13T14:55:53.259Z,3.60
2022-09-13T14:58:29.133Z,2.70
2022-09-13T15:01:04.510Z,4.40
2022-09-13T15:03:37.467Z,2.60
2022-09-13T15:06:21.235Z,3.80
2022-09-13T15:08:56.665Z,3.50
2022-09-13T15:11:34.953Z,2.60
2022-09-13T15:14:34.925Z,3.30
2022-09-13T15:17:12.536Z,3.80
2022-09-13T15:19:45.634Z,4.10
2022-09-13T15:22:22.397Z,3.70
2022-09-13T15:25:00.401Z,2.90
2022-09-13T15:27:44.452Z,2.70
2022-09-13T15:30:24.035Z,6.50
2022-09-13T15:33:24.345Z,3.30
2022-09-13T15:36:16.013Z,3.80
2022-09-13T15:39:02.690Z,3.40
2022-09-13T15:41:37.073Z,3.80
2022-09-13T15:44:11.461Z,3.80
2022-09-13T15:46:52.308Z,6.50
2022-09-13T15:49:27.307Z,6.10
2022-09-13T15:52:01.351Z,4.20
2022-09-13T15:54:37.709Z,4.40
2022-09-13T15:57:23.064Z,3.90
2022-09-13T15:59:56.665Z,3.40
2022-09-13T16:02:32.262Z,5.10
2022-09-13T16:05:06.956Z,3.50
2022-09-13T16:07:39.368Z,5.00
2022-09-13T16:10:17.408Z,7.40
2022-09-13T16:12:49.851Z,4.40
2022-09-13T16:15:22.300Z,3.80
2022-09-13T16:17:54.353Z,4.40
2022-09-13T16:20:29.673Z,6.20
2022-09-13T16:23:03.967Z,5.70
2022-09-13T16:25:37.850Z,6.30
2022-09-13T16:28:16.445Z,5.20
2022-09-13T16:30:49.534Z,3.90
2022-09-13T16:33:23.770Z,5.30
2022-09-13T16:35:59.120Z,3.90
2022-09-13T16:38:34.120Z,3.90
2022-09-13T16:41:17.248Z,5.20
2022-09-13T16:43:55.214Z,3.90
2022-09-13T16:46:28.551Z,4.20
2022-09-13T16:49:03.024Z,5.80
2022-09-13T16:51:37.956Z,3.70
2022-09-13T16:54:09.875Z,6.60
2022-09-13T16:56:44.669Z,4.70
2022-09-13T16:59:16.581Z,4.30
2022-09-13T17:01:51.237Z,4.90
2022-09-13T17:04:23.975Z,5.20
2022-09-13T17:07:07.404Z,8.60
2022-09-13T17:09:49.096Z,5.30
2022-09-13T17:12:24.602Z,6.70
2022-09-13T17:15:11.609Z,4.80
2022-09-13T17:17:51.173Z,5.60
2022-09-13T17:20:34.249Z,5.30
2022-09-13T17:26:01.330Z,5.40
2022-09-13T17:28:41.946Z,9.20
2022-09-13T17:31:14.430Z,6.80
2022-09-13T17:33:50.202Z,10.50
2022-09-13T17:36:22.823Z,7.30
2022-09-13T17:39:06.893Z,5.70
2022-09-13T17:41:51.285Z,5.60
2022-09-13T17:44:25.758Z,6.30
2022-09-13T17:47:02.463Z,5.80
2022-09-13T17:49:35.414Z,5.60
2022-09-13T17:52:10.853Z,6.00
2022-09-13T17:54:43.450Z,5.60
2022-09-13T17:57:22.236Z,7.10
2022-09-13T18:00:09.763Z,7.50
2022-09-13T18:03:02.162Z,6.90
2022-09-13T18:05:34.403Z,7.20
2022-09-13T18:08:09.774Z,9.20
2022-09-13T18:10:58.399Z,8.40
2022-09-13T18:13:46.334Z,8.90
2022-09-13T18:16:21.691Z,6.10
2022-09-13T18:19:07.643Z,6.90
2022-09-13T18:21:47.467Z,8.70
2022-09-13T18:24:21.523Z,5.70
2022-09-13T18:26:53.919Z,6.20
2022-09-13T18:29:45.556Z,7.90
2022-09-13T18:32:17.799Z,8.40
2022-09-13T18:34:54.850Z,8.80
2022-09-13T18:37:27.333Z,7.10
2022-09-13T18:39:59.861Z,7.50
2022-09-13T18:42:46.801Z,6.60
2022-09-13T18:45:21.246Z,15.30
2022-09-13T18:47:54.510Z,53.70
2022-09-13T18:50:35.902Z,43.80
